createdAt,value
2016-02-20T00:00:47.323Z,25.16
2016-02-20T00:01:47.295Z,25.2
2016-02-20T00:02:47.314Z,25.31
2016-02-20T00:03:47.253Z,25.24
2016-02-20T00:04:47.272Z,25.28
2016-02-20T00:05:47.069Z,25.34
2016-02-20T00:06:47.197Z,25.37
2016-02-20T00:07:47.200Z,25.27
2016-02-20T00:08:47.171Z,25.38
2016-02-20T00:09:47.174Z,25.39
2016-02-20T00:10:47.130Z,25.39
2016-02-20T00:11:47.164Z,25.34
2016-02-20T00:12:47.104Z,25.5
2016-02-20T00:13:47.091Z,25.42
2016-02-20T00:14:47.078Z,25.28
2016-02-20T00:15:47.065Z,25.38
2016-02-20T00:16:47.052Z,25.37
2016-02-20T00:17:47.024Z,25.46
2016-02-20T00:18:46.996Z,25.42
2016-02-20T00:19:46.873Z,25.42
2016-02-20T00:20:46.969Z,25.46
2016-02-20T00:21:46.957Z,25.44
2016-02-20T00:22:46.944Z,25.42
2016-02-20T00:23:46.915Z,25.49
2016-02-20T00:24:46.902Z,25.44
2016-02-20T00:25:46.889Z,25.49
2016-02-20T00:26:46.860Z,25.52
2016-02-20T00:27:46.847Z,25.49
2016-02-20T00:28:46.835Z,25.54
2016-02-20T00:29:46.806Z,25.49
2016-02-20T00:30:46.798Z,25.61
2016-02-20T00:31:46.785Z,25.59
2016-02-20T00:32:46.757Z,25.52
2016-02-20T00:33:46.744Z,25.52
2016-02-20T00:34:46.715Z,25.56
2016-02-20T00:35:46.703Z,25.59
2016-02-20T00:36:46.705Z,25.57
2016-02-20T00:37:46.660Z,25.61
2016-02-20T00:38:46.647Z,25.57
2016-02-20T00:39:46.635Z,25.56
2016-02-20T00:40:46.622Z,25.47
2016-02-20T00:41:46.608Z,25.53
2016-02-20T00:42:46.596Z,25.57
2016-02-20T00:43:46.567Z,25.57
2016-02-20T00:44:46.555Z,25.52
2016-02-20T00:45:46.526Z,25.49
2016-02-20T00:46:46.513Z,25.46
2016-02-20T00:47:46.515Z,25.5
2016-02-20T00:48:46.472Z,25.38
2016-02-20T00:49:46.458Z,25.32
2016-02-20T00:50:46.570Z,25.31
2016-02-20T00:51:46.432Z,25.24
2016-02-20T00:52:46.420Z,25.15
2016-02-20T00:53:46.390Z,25.09
2016-02-20T00:54:46.378Z,25
2016-02-20T00:55:46.350Z,24.98
2016-02-20T00:56:46.337Z,24.94
2016-02-20T00:57:46.309Z,24.91
2016-02-20T00:58:46.311Z,24.9
2016-02-20T00:59:46.126Z,24.88
2016-02-20T01:00:46.269Z,24.8
2016-02-20T01:01:46.256Z,24.85
2016-02-20T01:02:46.337Z,24.79
2016-02-20T01:03:46.402Z,24.77
2016-02-20T01:04:46.187Z,24.82
2016-02-20T01:05:46.173Z,24.8
2016-02-20T01:06:46.160Z,24.79
2016-02-20T01:07:46.132Z,24.64
2016-02-20T01:08:46.119Z,24.75
2016-02-20T01:09:46.105Z,24.73
2016-02-20T01:10:46.078Z,24.73
2016-02-20T01:11:46.064Z,24.75
2016-02-20T01:12:46.052Z,24.6
2016-02-20T01:13:46.039Z,24.61
2016-02-20T01:14:46.026Z,24.61
2016-02-20T01:15:45.997Z,24.63
2016-02-20T01:16:45.968Z,24.63
2016-02-20T01:17:45.971Z,24.68
2016-02-20T01:18:45.944Z,24.68
2016-02-20T01:19:45.914Z,24.73
2016-02-20T01:20:49.265Z,24.69
2016-02-20T01:21:45.893Z,24.79
2016-02-20T01:22:45.865Z,24.87
2016-02-20T01:23:45.852Z,24.91
2016-02-20T01:24:45.840Z,25.02
2016-02-20T01:25:45.810Z,25.06
2016-02-20T01:26:45.797Z,25.16
2016-02-20T01:27:45.800Z,25.2
2016-02-20T01:28:45.771Z,25.24
2016-02-20T01:29:45.743Z,25.24
2016-02-20T01:30:45.730Z,25.37
2016-02-20T01:31:45.717Z,25.28
2016-02-20T01:32:45.689Z,25.24
2016-02-20T01:33:45.675Z,25.34
2016-02-20T01:34:45.662Z,25.25
2016-02-20T01:35:45.649Z,25.27
2016-02-20T01:36:45.621Z,25.31
2016-02-20T01:37:45.608Z,25.39
2016-02-20T01:38:45.595Z,25.34
2016-02-20T01:39:45.598Z,25.38
2016-02-20T01:40:45.554Z,25.44
2016-02-20T01:41:45.541Z,25.44
2016-02-20T01:42:45.528Z,25.46
2016-02-20T01:43:45.499Z,25.38
2016-02-20T01:44:45.486Z,25.43
2016-02-20T01:45:45.473Z,25.52
2016-02-20T01:46:45.444Z,25.5
2016-02-20T01:47:45.447Z,25.52
2016-02-20T01:48:45.435Z,25.56
2016-02-20T01:49:45.406Z,25.69
2016-02-20T01:50:45.377Z,25.61
2016-02-20T01:51:45.365Z,25.62
2016-02-20T01:52:45.351Z,25.65
2016-02-20T01:53:45.323Z,25.67
2016-02-20T01:54:45.310Z,25.65
2016-02-20T01:55:45.298Z,25.59
2016-02-20T01:56:45.284Z,25.61
2016-02-20T01:57:45.256Z,25.57
2016-02-20T01:58:45.243Z,25.62
2016-02-20T01:59:45.229Z,25.54
2016-02-20T02:00:45.217Z,25.53
2016-02-20T02:01:45.203Z,25.5
2016-02-20T02:02:45.176Z,25.52
2016-02-20T02:03:45.162Z,25.42
2016-02-20T02:04:45.131Z,25.43
2016-02-20T02:05:45.118Z,25.25
2016-02-20T02:06:45.106Z,25.25
2016-02-20T02:07:45.092Z,25.32
2016-02-20T02:08:45.079Z,25.27
2016-02-20T02:09:45.050Z,25.24
2016-02-20T02:10:45.038Z,25.25
2016-02-20T02:11:44.869Z,25.15
2016-02-20T02:12:44.997Z,25.09
2016-02-20T02:13:44.983Z,25.1
2016-02-20T02:14:44.955Z,25.02
2016-02-20T02:15:44.958Z,24.95
2016-02-20T02:16:44.929Z,24.98
2016-02-20T02:17:44.900Z,24.97
2016-02-20T02:18:44.731Z,24.9
2016-02-20T02:19:44.874Z,24.8
2016-02-20T02:20:44.893Z,24.85
2016-02-20T02:21:44.865Z,24.77
2016-02-20T02:22:44.835Z,24.75
2016-02-20T02:23:44.807Z,24.77
2016-02-20T02:24:44.794Z,24.71
2016-02-20T02:25:44.765Z,24.68
2016-02-20T02:26:44.753Z,24.71
2016-02-20T02:27:44.724Z,24.75
2016-02-20T02:28:44.711Z,24.69
2016-02-20T02:29:44.698Z,24.73
2016-02-20T02:30:44.685Z,24.76
2016-02-20T02:31:44.656Z,24.68
2016-02-20T02:32:44.644Z,24.69
2016-02-20T02:33:44.631Z,24.73
2016-02-20T02:34:44.618Z,24.75
2016-02-20T02:35:44.589Z,24.68
2016-02-20T02:36:44.576Z,24.64
2016-02-20T02:37:44.563Z,24.69
2016-02-20T02:38:44.535Z,24.71
2016-02-20T02:39:44.522Z,24.76
2016-02-20T02:40:44.493Z,24.75
2016-02-20T02:41:44.480Z,24.71
2016-02-20T02:42:44.467Z,24.79
2016-02-20T02:43:44.439Z,24.8
2016-02-20T02:44:44.427Z,24.85
2016-02-20T02:45:44.429Z,24.88
2016-02-20T02:46:44.385Z,25.01
2016-02-20T02:47:44.371Z,25.07
2016-02-20T02:48:44.358Z,25.12
2016-02-20T02:49:44.346Z,25.17
2016-02-20T02:50:44.317Z,25.25
2016-02-20T02:51:44.304Z,25.25
2016-02-20T02:52:44.291Z,25.31
2016-02-20T02:53:44.293Z,25.27
2016-02-20T02:54:44.250Z,25.25
2016-02-20T02:55:44.237Z,25.34
2016-02-20T02:56:44.209Z,25.38
2016-02-20T02:57:44.196Z,25.39
2016-02-20T02:58:44.182Z,25.35
2016-02-20T02:59:44.170Z,25.49
2016-02-20T03:00:44.157Z,25.43
2016-02-20T03:01:44.129Z,25.46
2016-02-20T03:02:44.115Z,25.42
2016-02-20T03:03:44.102Z,25.42
2016-02-20T03:04:44.073Z,25.43
2016-02-20T03:05:44.061Z,25.43
2016-02-20T03:06:44.031Z,25.39
2016-02-20T03:07:44.020Z,25.49
2016-02-20T03:08:44.006Z,25.52
2016-02-20T03:09:43.994Z,25.54
2016-02-20T03:10:43.980Z,25.64
2016-02-20T03:11:43.952Z,25.59
2016-02-20T03:12:43.939Z,25.67
2016-02-20T03:13:43.925Z,25.62
2016-02-20T03:14:44.273Z,25.67
2016-02-20T03:15:43.899Z,25.69
2016-02-20T03:16:43.872Z,25.71
2016-02-20T03:17:43.843Z,25.65
2016-02-20T03:18:43.830Z,25.59
2016-02-20T03:19:43.816Z,25.61
2016-02-20T03:20:43.804Z,25.49
2016-02-20T03:21:43.776Z,25.42
2016-02-20T03:22:43.762Z,25.38
2016-02-20T03:23:43.765Z,25.35
2016-02-20T03:24:43.738Z,25.28
2016-02-20T03:25:43.708Z,25.24
2016-02-20T03:26:43.696Z,25.17
2016-02-20T03:27:43.668Z,25.17
2016-02-20T03:28:43.670Z,25.13
2016-02-20T03:29:43.640Z,25.07
2016-02-20T03:30:43.644Z,25.07
2016-02-20T03:31:43.614Z,25.02
2016-02-20T03:32:43.586Z,25.01
2016-02-20T03:33:43.573Z,24.95
2016-02-20T03:34:43.561Z,24.94
2016-02-20T03:35:43.548Z,24.97
2016-02-20T03:36:43.520Z,24.92
2016-02-20T03:37:43.506Z,24.87
2016-02-20T03:38:43.509Z,24.83
2016-02-20T03:39:43.449Z,24.82
2016-02-20T03:40:43.453Z,24.79
2016-02-20T03:41:43.439Z,24.82
2016-02-20T03:42:43.426Z,24.76
2016-02-20T03:43:43.397Z,24.76
2016-02-20T03:44:43.369Z,24.76
2016-02-20T03:45:43.372Z,24.71
2016-02-20T03:46:43.358Z,24.61
2016-02-20T03:47:43.314Z,24.77
2016-02-20T03:48:43.317Z,24.75
2016-02-20T03:49:43.289Z,24.68
2016-02-20T03:50:43.104Z,24.75
2016-02-20T03:51:43.246Z,24.73
2016-02-20T03:52:43.235Z,24.64
2016-02-20T03:53:43.237Z,24.77
2016-02-20T03:54:43.193Z,24.68
2016-02-20T03:55:43.180Z,24.79
2016-02-20T03:56:43.010Z,24.71
2016-02-20T03:57:43.138Z,24.73
2016-02-20T03:58:43.125Z,24.73
2016-02-20T03:59:43.112Z,24.79
2016-02-20T04:00:43.084Z,24.8
2016-02-20T04:01:43.087Z,24.83
2016-02-20T04:02:43.043Z,24.97
2016-02-20T04:03:43.029Z,24.91
2016-02-20T04:04:43.017Z,24.97
2016-02-20T04:05:43.003Z,24.97
2016-02-20T04:06:42.990Z,25.05
2016-02-20T04:07:42.962Z,25.06
2016-02-20T04:08:42.949Z,25.13
2016-02-20T04:09:42.921Z,25.12
2016-02-20T04:10:42.923Z,25.25
2016-02-20T04:11:42.911Z,25.35
2016-02-20T04:12:42.866Z,25.31
2016-02-20T04:13:42.853Z,25.37
2016-02-20T04:14:42.840Z,25.37
2016-02-20T04:15:42.827Z,25.42
2016-02-20T04:16:42.799Z,25.43
2016-02-20T04:17:42.786Z,25.39
2016-02-20T04:18:42.773Z,25.49
2016-02-20T04:19:42.744Z,25.49
2016-02-20T04:20:42.731Z,25.49
2016-02-20T04:21:42.719Z,25.47
2016-02-20T04:22:42.690Z,25.57
2016-02-20T04:23:42.677Z,25.56
2016-02-20T04:24:42.696Z,25.49
2016-02-20T04:25:42.651Z,25.52
2016-02-20T04:26:42.638Z,25.53
2016-02-20T04:27:42.609Z,25.44
2016-02-20T04:28:42.597Z,25.52
2016-02-20T04:29:42.599Z,25.5
2016-02-20T04:30:42.555Z,25.56
2016-02-20T04:31:42.557Z,25.62
2016-02-20T04:32:42.529Z,25.61
2016-02-20T04:33:42.501Z,25.64
2016-02-20T04:34:42.488Z,25.57
2016-02-20T04:35:42.475Z,25.69
2016-02-20T04:36:42.462Z,25.59
2016-02-20T04:37:42.448Z,25.62
2016-02-20T04:38:42.437Z,25.59
2016-02-20T04:39:42.407Z,25.49
2016-02-20T04:40:42.395Z,25.42
2016-02-20T04:41:42.367Z,25.47
2016-02-20T04:42:42.353Z,25.39
2016-02-20T04:43:42.325Z,25.28
2016-02-20T04:44:42.312Z,25.22
2016-02-20T04:45:42.299Z,25.24
2016-02-20T04:46:42.286Z,25.15
2016-02-20T04:47:42.272Z,25.25
2016-02-20T04:48:42.261Z,25.07
2016-02-20T04:49:42.231Z,25.12
2016-02-20T04:50:42.219Z,25.01
2016-02-20T04:51:42.190Z,25.06
2016-02-20T04:52:42.177Z,24.98
2016-02-20T04:53:42.164Z,24.94
2016-02-20T04:54:42.151Z,24.92
2016-02-20T04:55:42.122Z,24.94
2016-02-20T04:56:42.110Z,24.92
2016-02-20T04:57:42.097Z,24.92
2016-02-20T04:58:42.068Z,24.88
2016-02-20T04:59:42.055Z,24.94
2016-02-20T05:00:42.043Z,24.9
2016-02-20T05:01:42.014Z,24.77
2016-02-20T05:02:42.001Z,24.75
2016-02-20T05:03:41.988Z,24.79
2016-02-20T05:04:41.975Z,24.75
2016-02-20T05:05:41.946Z,24.69
2016-02-20T05:06:41.934Z,24.76
2016-02-20T05:07:41.904Z,24.76
2016-02-20T05:08:41.892Z,24.67
2016-02-20T05:09:41.878Z,24.61
2016-02-20T05:10:41.850Z,24.68
2016-02-20T05:11:41.682Z,24.63
2016-02-20T05:12:41.825Z,24.67
2016-02-20T05:13:41.811Z,24.64
2016-02-20T05:14:41.784Z,24.59
2016-02-20T05:15:41.770Z,24.68
2016-02-20T05:16:41.757Z,24.67
2016-02-20T05:17:41.744Z,24.75
2016-02-20T05:18:41.716Z,24.73
2016-02-20T05:19:41.687Z,24.79
2016-02-20T05:20:41.674Z,24.77
2016-02-20T05:21:41.662Z,24.85
2016-02-20T05:22:41.633Z,24.92
2016-02-20T05:23:41.619Z,24.9
2016-02-20T05:24:41.608Z,24.98
2016-02-20T05:25:41.594Z,24.97
2016-02-20T05:26:41.581Z,25.02
2016-02-20T05:27:41.552Z,25.06
2016-02-20T05:28:41.539Z,25.12
2016-02-20T05:29:41.527Z,25.05
2016-02-20T05:30:41.498Z,25.13
2016-02-20T05:31:41.485Z,25.24
2016-02-20T05:32:41.472Z,25.17
2016-02-20T05:33:41.459Z,25.27
2016-02-20T05:34:41.446Z,25.27
2016-02-20T05:35:41.418Z,25.31
2016-02-20T05:36:41.389Z,25.34
2016-02-20T05:37:41.376Z,25.38
2016-02-20T05:38:41.348Z,25.44
2016-02-20T05:39:41.351Z,25.44
2016-02-20T05:40:41.321Z,25.43
2016-02-20T05:41:41.324Z,25.42
2016-02-20T05:42:41.312Z,25.49
2016-02-20T05:43:41.267Z,25.43
2016-02-20T05:44:41.254Z,25.5
2016-02-20T05:45:41.242Z,25.52
2016-02-20T05:46:41.212Z,25.47
2016-02-20T05:47:41.200Z,25.5
2016-02-20T05:48:41.186Z,25.53
2016-02-20T05:49:41.175Z,25.53
2016-02-20T05:50:41.145Z,25.5
2016-02-20T05:51:41.133Z,25.53
2016-02-20T05:52:41.120Z,25.49
2016-02-20T05:53:41.106Z,25.46
2016-02-20T05:54:41.078Z,25.47
2016-02-20T05:55:41.284Z,25.44
2016-02-20T05:56:41.053Z,25.42
2016-02-20T05:57:41.149Z,25.42
2016-02-20T05:58:41.010Z,25.42
2016-02-20T05:59:40.997Z,25.37
2016-02-20T06:00:40.985Z,25.28
2016-02-20T06:01:40.971Z,25.31
2016-02-20T06:02:40.960Z,25.25
2016-02-20T06:03:41.415Z,25.15
2016-02-20T06:04:40.918Z,25.05
2016-02-20T06:05:40.888Z,25.1
2016-02-20T06:06:40.876Z,25
2016-02-20T06:07:40.863Z,24.97
2016-02-20T06:08:40.834Z,24.98
2016-02-20T06:09:40.821Z,24.91
2016-02-20T06:10:40.809Z,24.9
2016-02-20T06:11:40.795Z,24.83
2016-02-20T06:12:40.768Z,24.82
2016-02-20T06:13:40.754Z,24.75
2016-02-20T06:14:40.726Z,24.75
2016-02-20T06:15:40.728Z,24.71
2016-02-20T06:16:40.715Z,24.75
2016-02-20T06:17:40.671Z,24.75
2016-02-20T06:18:40.658Z,24.71
2016-02-20T06:19:40.645Z,24.71
2016-02-20T06:20:40.633Z,24.76
2016-02-20T06:21:40.619Z,24.71
2016-02-20T06:22:40.591Z,24.71
2016-02-20T06:23:40.578Z,24.67
2016-02-20T06:24:40.550Z,24.67
2016-02-20T06:25:40.536Z,24.69
2016-02-20T06:26:40.539Z,24.75
2016-02-20T06:27:40.495Z,24.73
2016-02-20T06:28:40.482Z,24.68
2016-02-20T06:29:40.453Z,24.64
2016-02-20T06:30:40.441Z,24.68
2016-02-20T06:31:40.428Z,24.6
2016-02-20T06:32:40.415Z,24.56
2016-02-20T06:33:40.386Z,24.57
2016-02-20T06:34:40.373Z,24.53
2016-02-20T06:35:40.344Z,24.59
2016-02-20T06:36:40.331Z,24.56
2016-02-20T06:37:40.319Z,24.59
2016-02-20T06:38:40.290Z,24.6
2016-02-20T06:39:40.277Z,24.6
2016-02-20T06:40:40.264Z,24.67
2016-02-20T06:41:40.235Z,24.76
2016-02-20T06:42:40.223Z,24.77
2016-02-20T06:43:40.210Z,24.71
2016-02-20T06:44:40.198Z,24.88
2016-02-20T06:45:40.168Z,24.82
2016-02-20T06:46:40.170Z,24.92
2016-02-20T06:47:40.158Z,24.97
2016-02-20T06:48:40.129Z,25
2016-02-20T06:49:40.101Z,25.05
2016-02-20T06:50:40.088Z,25.09
2016-02-20T06:51:40.059Z,25.05
2016-02-20T06:52:40.047Z,25.09
2016-02-20T06:53:40.017Z,25.06
2016-02-20T06:54:40.021Z,25.06
2016-02-20T06:55:40.008Z,25.15
2016-02-20T06:56:39.980Z,25.17
2016-02-20T06:57:39.950Z,25.17
2016-02-20T06:58:39.953Z,25.32
2016-02-20T06:59:39.925Z,25.3
2016-02-20T07:00:39.896Z,25.37
2016-02-20T07:01:39.899Z,25.42
2016-02-20T07:02:39.886Z,25.5
2016-02-20T07:03:39.857Z,25.47
2016-02-20T07:04:39.829Z,25.46
2016-02-20T07:05:39.816Z,25.44
2016-02-20T07:06:39.802Z,25.44
2016-02-20T07:07:39.790Z,25.44
2016-02-20T07:08:39.761Z,25.39
2016-02-20T07:09:39.749Z,25.54
2016-02-20T07:10:39.735Z,25.49
2016-02-20T07:11:39.722Z,25.44
2016-02-20T07:12:39.710Z,25.43
2016-02-20T07:13:39.681Z,25.39
2016-02-20T07:14:39.668Z,25.43
2016-02-20T07:15:39.640Z,25.32
2016-02-20T07:16:39.642Z,25.28
2016-02-20T07:17:39.614Z,25.31
2016-02-20T07:18:39.600Z,25.28
2016-02-20T07:19:39.573Z,25.17
2016-02-20T07:20:39.559Z,25.17
2016-02-20T07:21:39.546Z,25.15
2016-02-20T07:22:39.517Z,25.12
2016-02-20T07:23:39.505Z,25.07
2016-02-20T07:24:39.492Z,25.02
2016-02-20T07:25:39.464Z,25.05
2016-02-20T07:26:39.466Z,24.97
2016-02-20T07:27:39.453Z,24.92
2016-02-20T07:28:39.424Z,24.94
2016-02-20T07:29:39.397Z,24.91
2016-02-20T07:30:39.383Z,24.83
2016-02-20T07:31:39.354Z,24.83
2016-02-20T07:32:39.341Z,24.8
2016-02-20T07:33:39.329Z,24.71
2016-02-20T07:34:39.316Z,24.75
2016-02-20T07:35:39.287Z,24.75
2016-02-20T07:36:39.275Z,24.68
2016-02-20T07:37:39.246Z,24.75
2016-02-20T07:38:39.232Z,24.71
2016-02-20T07:39:39.220Z,24.71
2016-02-20T07:40:39.207Z,24.75
2016-02-20T07:41:39.600Z,24.79
2016-02-20T07:42:39.165Z,24.68
2016-02-20T07:43:39.152Z,24.71
2016-02-20T07:44:38.968Z,24.67
2016-02-20T07:45:39.111Z,24.71
2016-02-20T07:46:39.098Z,24.75
2016-02-20T07:47:39.070Z,24.71
2016-02-20T07:48:39.056Z,24.71
2016-02-20T07:49:39.059Z,24.71
2016-02-20T07:50:39.031Z,24.61
2016-02-20T07:51:39.002Z,24.73
2016-02-20T07:52:39.005Z,24.67
2016-02-20T07:53:38.960Z,24.67
2016-02-20T07:54:38.948Z,24.61
2016-02-20T07:55:38.934Z,24.63
2016-02-20T07:56:38.922Z,24.61
2016-02-20T07:57:38.909Z,24.6
2016-02-20T07:58:38.880Z,24.69
2016-02-20T07:59:38.852Z,24.57
2016-02-20T08:00:38.838Z,24.59
2016-02-20T08:01:38.841Z,24.61
2016-02-20T08:02:38.813Z,24.5
2016-02-20T08:03:38.799Z,24.59
2016-02-20T08:04:38.772Z,24.61
2016-02-20T08:05:38.743Z,24.61
2016-02-20T08:06:38.730Z,24.68
2016-02-20T08:07:38.717Z,24.75
2016-02-20T08:08:38.704Z,24.83
2016-02-20T08:09:38.675Z,24.88
2016-02-20T08:10:38.663Z,24.94
2016-02-20T08:11:38.649Z,24.95
2016-02-20T08:12:38.621Z,24.91
2016-02-20T08:13:38.607Z,25
2016-02-20T08:14:38.595Z,25.02
2016-02-20T08:15:38.567Z,25.1
2016-02-20T08:16:38.569Z,25.06
2016-02-20T08:17:38.541Z,25.12
2016-02-20T08:18:38.528Z,25.17
2016-02-20T08:19:38.498Z,25.24
2016-02-20T08:20:38.486Z,25.2
2016-02-20T08:21:38.473Z,25.27
2016-02-20T08:22:38.461Z,25.27
2016-02-20T08:23:38.447Z,25.31
2016-02-20T08:24:38.419Z,25.37
2016-02-20T08:25:38.390Z,25.44
2016-02-20T08:26:38.377Z,25.39
2016-02-20T08:27:38.365Z,25.43
2016-02-20T08:28:38.336Z,25.59
2016-02-20T08:29:38.322Z,25.57
2016-02-20T08:30:38.310Z,25.62
2016-02-20T08:31:38.297Z,25.54
2016-02-20T08:32:38.284Z,25.44
2016-02-20T08:33:38.286Z,25.43
2016-02-20T08:34:38.243Z,25.44
2016-02-20T08:35:38.230Z,25.32
2016-02-20T08:36:38.201Z,25.32
2016-02-20T08:37:38.173Z,25.27
2016-02-20T08:38:38.173Z,25.24
2016-02-20T08:39:38.150Z,25.17
2016-02-20T08:40:38.111Z,25.17
2016-02-20T08:41:38.102Z,25.16
2016-02-20T08:42:38.077Z,25.09
2016-02-20T08:43:38.023Z,25.05
2016-02-20T08:44:38.005Z,25.01
2016-02-20T08:45:37.989Z,25.07
2016-02-20T08:46:37.971Z,25
2016-02-20T08:47:37.938Z,25.01
2016-02-20T08:48:37.921Z,25.05
2016-02-20T08:49:37.923Z,24.9
2016-02-20T08:50:37.877Z,24.94
2016-02-20T08:51:37.863Z,24.94
2016-02-20T08:52:37.833Z,24.9
2016-02-20T08:53:37.819Z,24.91
2016-02-20T08:54:37.805Z,24.91
2016-02-20T08:55:37.792Z,24.82
2016-02-20T08:56:37.763Z,24.76
2016-02-20T08:57:37.750Z,24.8
2016-02-20T08:58:37.736Z,24.79
2016-02-20T08:59:37.724Z,24.83
2016-02-20T09:00:37.710Z,24.77
2016-02-20T09:01:37.712Z,24.87
2016-02-20T09:02:37.652Z,24.83
2016-02-20T09:03:37.639Z,24.71
2016-02-20T09:04:37.611Z,24.82
2016-02-20T09:05:37.597Z,24.77
2016-02-20T09:06:37.584Z,24.75
2016-02-20T09:07:37.572Z,24.77
2016-02-20T09:08:37.559Z,24.69
2016-02-20T09:09:37.530Z,24.83
2016-02-20T09:10:37.517Z,24.8
2016-02-20T09:11:37.489Z,24.64
2016-02-20T09:12:37.475Z,24.75
2016-02-20T09:13:37.462Z,24.82
2016-02-20T09:14:37.434Z,24.77
2016-02-20T09:15:37.483Z,24.79
2016-02-20T09:16:37.408Z,24.76
2016-02-20T09:17:37.410Z,24.71
2016-02-20T09:18:37.366Z,24.69
2016-02-20T09:19:37.354Z,24.71
2016-02-20T09:20:37.324Z,24.75
2016-02-20T09:21:37.312Z,24.87
2016-02-20T09:22:37.346Z,24.73
2016-02-20T09:23:37.286Z,24.71
2016-02-20T09:24:37.305Z,24.73
2016-02-20T09:25:37.260Z,24.75
2016-02-20T09:26:37.231Z,24.71
2016-02-20T09:27:37.204Z,24.68
2016-02-20T09:28:37.190Z,24.75
2016-02-20T09:29:37.178Z,24.76
2016-02-20T09:30:37.181Z,24.71
2016-02-20T09:31:37.136Z,24.68
2016-02-20T09:32:37.123Z,24.71
2016-02-20T09:33:37.094Z,24.77
2016-02-20T09:34:37.081Z,24.88
2016-02-20T09:35:37.084Z,24.76
2016-02-20T09:36:37.056Z,24.68
2016-02-20T09:37:37.027Z,24.75
2016-02-20T09:38:37.014Z,24.76
2016-02-20T09:39:36.830Z,24.73
2016-02-20T09:40:36.972Z,24.79
2016-02-20T09:41:36.960Z,24.71
2016-02-20T09:42:36.947Z,24.63
2016-02-20T09:43:36.933Z,24.71
2016-02-20T09:44:36.905Z,24.69
2016-02-20T09:45:36.877Z,24.67
2016-02-20T09:46:36.707Z,24.68
2016-02-20T09:47:36.851Z,24.76
2016-02-20T09:48:36.838Z,24.69
2016-02-20T09:49:36.809Z,24.76
2016-02-20T09:50:36.796Z,24.68
2016-02-20T09:51:36.783Z,24.73
2016-02-20T09:52:36.771Z,24.76
2016-02-20T09:53:36.742Z,24.75
2016-02-20T09:54:36.713Z,24.71
2016-02-20T09:55:36.701Z,24.75
2016-02-20T09:56:36.687Z,24.83
2016-02-20T09:57:36.659Z,24.8
2016-02-20T09:58:36.646Z,24.82
2016-02-20T09:59:36.633Z,24.77
2016-02-20T10:00:36.621Z,24.71
2016-02-20T10:01:36.592Z,24.73
2016-02-20T10:02:36.579Z,24.73
2016-02-20T10:03:36.566Z,24.79
2016-02-20T10:04:36.459Z,24.71
2016-02-20T10:05:36.525Z,24.69
2016-02-20T10:06:36.511Z,24.71
2016-02-20T10:07:36.483Z,24.75
2016-02-20T10:08:36.469Z,24.64
2016-02-20T10:09:36.457Z,24.75
2016-02-20T10:10:36.459Z,24.61
2016-02-20T10:11:36.416Z,24.76
2016-02-20T10:12:36.387Z,24.8
2016-02-20T10:13:36.405Z,24.73
2016-02-20T10:14:36.361Z,24.76
2016-02-20T10:15:36.347Z,24.77
2016-02-20T10:16:36.319Z,24.76
2016-02-20T10:17:36.338Z,24.67
2016-02-20T10:18:36.294Z,24.79
2016-02-20T10:19:36.281Z,24.71
2016-02-20T10:20:36.268Z,24.69
2016-02-20T10:21:36.238Z,24.76
2016-02-20T10:22:36.227Z,24.68
2016-02-20T10:23:36.198Z,24.76
2016-02-20T10:24:36.184Z,24.79
2016-02-20T10:25:36.203Z,24.71
2016-02-20T10:26:36.143Z,24.76
2016-02-20T10:27:36.146Z,24.73
2016-02-20T10:28:36.102Z,24.67
2016-02-20T10:29:36.120Z,24.76
2016-02-20T10:30:36.076Z,24.75
2016-02-20T10:31:36.063Z,24.8
2016-02-20T10:32:36.050Z,24.69
2016-02-20T10:33:36.037Z,24.77
2016-02-20T10:34:36.008Z,24.76
2016-02-20T10:35:35.995Z,24.77
2016-02-20T10:36:35.967Z,24.8
2016-02-20T10:37:35.954Z,24.8
2016-02-20T10:38:35.925Z,24.83
2016-02-20T10:39:35.912Z,24.97
2016-02-20T10:40:35.900Z,25.01
2016-02-20T10:41:35.887Z,25
2016-02-20T10:42:35.874Z,25.01
2016-02-20T10:43:35.845Z,25.09
2016-02-20T10:44:35.833Z,25.13
2016-02-20T10:45:35.803Z,25.22
2016-02-20T10:46:35.791Z,25.2
2016-02-20T10:47:35.778Z,25.15
2016-02-20T10:48:35.749Z,25.22
2016-02-20T10:49:35.736Z,25.28
2016-02-20T10:50:35.724Z,25.3
2016-02-20T10:51:35.554Z,25.42
2016-02-20T10:52:35.682Z,25.49
2016-02-20T10:53:35.668Z,25.42
2016-02-20T10:54:35.656Z,25.52
2016-02-20T10:55:35.627Z,25.46
2016-02-20T10:56:35.615Z,25.52
2016-02-20T10:57:35.602Z,25.59
2016-02-20T10:58:35.635Z,25.53
2016-02-20T10:59:35.590Z,25.52
2016-02-20T11:00:35.593Z,25.43
2016-02-20T11:01:35.534Z,25.43
2016-02-20T11:02:35.506Z,25.38
2016-02-20T11:03:35.634Z,25.38
2016-02-20T11:04:35.480Z,25.34
2016-02-20T11:05:35.451Z,25.3
2016-02-20T11:06:35.439Z,25.3
2016-02-20T11:07:35.425Z,25.24
2016-02-20T11:08:35.397Z,25.16
2016-02-20T11:09:35.243Z,25.16
2016-02-20T11:10:35.370Z,25.02
2016-02-20T11:11:35.374Z,25.13
2016-02-20T11:12:35.345Z,25.06
2016-02-20T11:13:35.317Z,25.01
2016-02-20T11:14:35.304Z,25.06
2016-02-20T11:15:35.275Z,25.02
2016-02-20T11:16:35.262Z,25.01
2016-02-20T11:17:35.250Z,25.05
2016-02-20T11:18:35.236Z,25.02
2016-02-20T11:19:35.052Z,25.02
2016-02-20T11:20:35.195Z,25.05
2016-02-20T11:21:35.182Z,25.06
2016-02-20T11:22:35.169Z,24.98
2016-02-20T11:23:35.203Z,25
2016-02-20T11:24:35.143Z,25
2016-02-20T11:25:35.115Z,24.91
2016-02-20T11:26:35.086Z,25
2016-02-20T11:27:35.073Z,24.9
2016-02-20T11:28:35.044Z,24.98
2016-02-20T11:29:35.032Z,24.92
2016-02-20T11:30:35.035Z,24.85
2016-02-20T11:31:35.006Z,24.88
2016-02-20T11:32:35.009Z,24.92
2016-02-20T11:33:34.965Z,24.88
2016-02-20T11:34:34.951Z,24.83
2016-02-20T11:35:34.922Z,24.85
2016-02-20T11:36:34.909Z,24.8
2016-02-20T11:37:34.912Z,24.83
2016-02-20T11:38:34.884Z,24.83
2016-02-20T11:39:34.856Z,24.87
2016-02-20T11:40:34.843Z,24.87
2016-02-20T11:41:34.814Z,24.9
2016-02-20T11:42:34.879Z,24.85
2016-02-20T11:43:34.789Z,24.85
2016-02-20T11:44:34.775Z,24.91
2016-02-20T11:45:34.730Z,24.9
2016-02-20T11:46:34.749Z,24.91
2016-02-20T11:47:34.752Z,24.91
2016-02-20T11:48:34.692Z,24.83
2016-02-20T11:49:34.695Z,24.94
2016-02-20T11:50:34.807Z,24.8
2016-02-20T11:51:34.638Z,24.87
2016-02-20T11:52:34.641Z,24.79
2016-02-20T11:53:34.830Z,24.77
2016-02-20T11:54:34.880Z,24.82
2016-02-20T11:55:34.585Z,24.77
2016-02-20T11:56:34.557Z,24.91
2016-02-20T11:57:34.529Z,24.91
2016-02-20T11:58:34.531Z,24.77
2016-02-20T11:59:34.502Z,24.77
2016-02-20T12:00:34.490Z,24.76
2016-02-20T12:01:34.462Z,24.79
2016-02-20T12:02:34.464Z,24.83
2016-02-20T12:03:34.420Z,24.9
2016-02-20T12:04:34.423Z,24.95
2016-02-20T12:05:34.410Z,24.87
2016-02-20T12:06:35.054Z,24.9
2016-02-20T12:07:34.368Z,24.9
2016-02-20T12:08:34.356Z,24.87
2016-02-20T12:09:34.327Z,24.95
2016-02-20T12:10:34.314Z,24.87
2016-02-20T12:11:34.284Z,24.92
2016-02-20T12:12:34.272Z,24.91
2016-02-20T12:13:34.259Z,24.8
2016-02-20T12:14:34.231Z,24.82
2016-02-20T12:15:34.217Z,24.91
2016-02-20T12:16:34.190Z,24.9
2016-02-20T12:17:34.191Z,24.92
2016-02-20T12:18:34.164Z,24.91
2016-02-20T12:19:34.150Z,24.94
2016-02-20T12:20:34.137Z,24.9
2016-02-20T12:21:34.108Z,24.87
2016-02-20T12:22:34.096Z,24.9
2016-02-20T12:23:34.083Z,24.94
2016-02-20T12:24:34.052Z,24.91
2016-02-20T12:25:34.055Z,24.9
2016-02-20T12:26:34.011Z,24.94
2016-02-20T12:27:33.997Z,25
2016-02-20T12:28:33.985Z,24.97
2016-02-20T12:29:33.971Z,24.9
2016-02-20T12:30:33.958Z,24.94
2016-02-20T12:31:33.929Z,24.97
2016-02-20T12:32:33.917Z,24.92
2016-02-20T12:33:33.888Z,24.94
2016-02-20T12:34:33.891Z,24.95
2016-02-20T12:35:33.863Z,24.95
2016-02-20T12:36:34.054Z,24.91
2016-02-20T12:37:33.837Z,24.91
2016-02-20T12:38:33.809Z,24.88
2016-02-20T12:39:33.796Z,24.97
2016-02-20T12:40:33.767Z,24.92
2016-02-20T12:41:33.770Z,24.94
2016-02-20T12:42:33.740Z,24.97
2016-02-20T12:43:33.712Z,24.94
2016-02-20T12:44:33.700Z,24.83
2016-02-20T12:45:33.703Z,24.91
2016-02-20T12:46:33.658Z,24.94
2016-02-20T12:47:33.645Z,24.91
2016-02-20T12:48:33.631Z,24.94
2016-02-20T12:49:33.603Z,25.01
2016-02-20T12:50:33.606Z,24.92
2016-02-20T12:51:33.578Z,24.97
2016-02-20T12:52:33.564Z,25.01
2016-02-20T12:53:33.536Z,24.97
2016-02-20T12:54:33.523Z,25.05
2016-02-20T12:55:33.510Z,24.98